Anahuac, Texas
Current Conditions -  °F | °C
As of 3:50 PM on Tuesday 21 Oct 2014 (Local Time) from KEFD Reporting Station
Clear Clear  
Wind Chill: 79°   Ceiling: Unl
Heat Index: 79°   Visibility: 10mi
Dew Point: 54°   Wind: 10mph
Humidity: 42%   Direction: 70°ENE
Pressure: 29.99"   Gusts: NA
Location:  29.77°N, 94.68°W
Report Text: KEFD 212050Z 07009KT 10SM CLR 26/12 A2999
Loading
Personal Weather Stations






























Interactive Weather Map
Tropical Storm Tracking
New forecast layout! Learn more

10-Day Weather Forecast

Advertisements
Track Severe Weather on mobile